sensor_id;sensor_type;location;lat;lon;timestamp;P1;durP1;ratioP1;P2;durP2;ratioP2
7045;SDS011;3564;53.326;10.356;2023-04-25T00:00:12;5.97;;;3.60;;
7045;SDS011;3564;53.326;10.356;2023-04-25T00:02:38;4.13;;;3.73;;
7045;SDS011;3564;53.326;10.356;2023-04-25T00:05:04;5.43;;;3.90;;
7045;SDS011;3564;53.326;10.356;2023-04-25T00:07:30;7.20;;;3.80;;
7045;SDS011;3564;53.326;10.356;2023-04-25T00:09:56;8.33;;;3.73;;
7045;SDS011;3564;53.326;10.356;2023-04-25T00:12:21;7.10;;;4.13;;
7045;SDS011;3564;53.326;10.356;2023-04-25T00:14:50;5.07;;;3.67;;
7045;SDS011;3564;53.326;10.356;2023-04-25T00:17:16;4.90;;;4.00;;
7045;SDS011;3564;53.326;10.356;2023-04-25T00:19:42;5.30;;;3.80;;
7045;SDS011;3564;53.326;10.356;2023-04-25T00:22:15;5.07;;;3.97;;
7045;SDS011;3564;53.326;10.356;2023-04-25T00:24:42;7.30;;;4.03;;
7045;SDS011;3564;53.326;10.356;2023-04-25T00:27:07;7.77;;;4.47;;
7045;SDS011;3564;53.326;10.356;2023-04-25T00:29:33;5.53;;;3.97;;
7045;SDS011;3564;53.326;10.356;2023-04-25T00:31:59;5.50;;;4.20;;
7045;SDS011;3564;53.326;10.356;2023-04-25T00:34:28;5.97;;;4.30;;
7045;SDS011;3564;53.326;10.356;2023-04-25T00:36:53;6.90;;;4.50;;
7045;SDS011;3564;53.326;10.356;2023-04-25T00:39:22;6.33;;;4.87;;
7045;SDS011;3564;53.326;10.356;2023-04-25T00:41:50;4.97;;;4.40;;
7045;SDS011;3564;53.326;10.356;2023-04-25T00:44:19;7.60;;;4.83;;
7045;SDS011;3564;53.326;10.356;2023-04-25T00:46:46;5.93;;;5.00;;
7045;SDS011;3564;53.326;10.356;2023-04-25T00:49:13;5.87;;;4.77;;
7045;SDS011;3564;53.326;10.356;2023-04-25T00:51:41;5.20;;;4.70;;
7045;SDS011;3564;53.326;10.356;2023-04-25T00:54:07;7.27;;;5.50;;
7045;SDS011;3564;53.326;10.356;2023-04-25T00:56:32;4.77;;;4.37;;
7045;SDS011;3564;53.326;10.356;2023-04-25T00:58:58;7.77;;;5.53;;
7045;SDS011;3564;53.326;10.356;2023-04-25T01:01:23;6.00;;;4.57;;
7045;SDS011;3564;53.326;10.356;2023-04-25T01:03:49;4.60;;;4.17;;
7045;SDS011;3564;53.326;10.356;2023-04-25T01:06:15;4.90;;;4.10;;
7045;SDS011;3564;53.326;10.356;2023-04-25T01:08:41;4.70;;;3.83;;
7045;SDS011;3564;53.326;10.356;2023-04-25T01:11:10;4.30;;;3.90;;
7045;SDS011;3564;53.326;10.356;2023-04-25T01:13:42;4.00;;;3.60;;
7045;SDS011;3564;53.326;10.356;2023-04-25T01:16:08;6.50;;;3.80;;
7045;SDS011;3564;53.326;10.356;2023-04-25T01:18:33;6.13;;;3.40;;
7045;SDS011;3564;53.326;10.356;2023-04-25T01:21:08;6.03;;;3.10;;
7045;SDS011;3564;53.326;10.356;2023-04-25T01:23:39;6.27;;;2.80;;
7045;SDS011;3564;53.326;10.356;2023-04-25T01:26:08;8.60;;;2.73;;
7045;SDS011;3564;53.326;10.356;2023-04-25T01:28:35;9.07;;;3.40;;
7045;SDS011;3564;53.326;10.356;2023-04-25T01:31:02;6.93;;;3.10;;
7045;SDS011;3564;53.326;10.356;2023-04-25T01:33:28;11.87;;;3.20;;
7045;SDS011;3564;53.326;10.356;2023-04-25T01:35:54;7.60;;;3.23;;
7045;SDS011;3564;53.326;10.356;2023-04-25T01:38:20;10.33;;;3.37;;
7045;SDS011;3564;53.326;10.356;2023-04-25T01:40:46;9.47;;;3.43;;
7045;SDS011;3564;53.326;10.356;2023-04-25T01:43:15;9.30;;;3.60;;
7045;SDS011;3564;53.326;10.356;2023-04-25T01:45:46;10.30;;;3.83;;
7045;SDS011;3564;53.326;10.356;2023-04-25T01:48:13;9.70;;;3.30;;
7045;SDS011;3564;53.326;10.356;2023-04-25T01:50:43;12.90;;;3.40;;
7045;SDS011;3564;53.326;10.356;2023-04-25T01:53:09;13.10;;;3.93;;
7045;SDS011;3564;53.326;10.356;2023-04-25T01:55:37;12.43;;;3.20;;
7045;SDS011;3564;53.326;10.356;2023-04-25T01:58:03;11.27;;;3.87;;
7045;SDS011;3564;53.326;10.356;2023-04-25T02:00:34;14.30;;;4.00;;
7045;SDS011;3564;53.326;10.356;2023-04-25T02:02:59;13.77;;;5.10;;
7045;SDS011;3564;53.326;10.356;2023-04-25T02:05:25;11.27;;;3.90;;
7045;SDS011;3564;53.326;10.356;2023-04-25T02:07:50;16.27;;;4.37;;
7045;SDS011;3564;53.326;10.356;2023-04-25T02:10:16;14.10;;;3.83;;
7045;SDS011;3564;53.326;10.356;2023-04-25T02:12:42;12.07;;;4.57;;
7045;SDS011;3564;53.326;10.356;2023-04-25T02:15:07;17.07;;;4.27;;
7045;SDS011;3564;53.326;10.356;2023-04-25T02:17:33;14.63;;;4.27;;
7045;SDS011;3564;53.326;10.356;2023-04-25T02:20:01;15.77;;;4.07;;
7045;SDS011;3564;53.326;10.356;2023-04-25T02:22:28;10.40;;;3.53;;
7045;SDS011;3564;53.326;10.356;2023-04-25T02:24:58;16.57;;;4.40;;
7045;SDS011;3564;53.326;10.356;2023-04-25T02:27:26;13.63;;;3.83;;
7045;SDS011;3564;53.326;10.356;2023-04-25T02:29:52;14.30;;;4.20;;
7045;SDS011;3564;53.326;10.356;2023-04-25T02:32:17;11.87;;;3.93;;
7045;SDS011;3564;53.326;10.356;2023-04-25T02:34:43;15.97;;;4.43;;
7045;SDS011;3564;53.326;10.356;2023-04-25T02:37:08;11.47;;;3.50;;
7045;SDS011;3564;53.326;10.356;2023-04-25T02:39:34;15.30;;;4.83;;
7045;SDS011;3564;53.326;10.356;2023-04-25T02:42:03;17.27;;;4.87;;
7045;SDS011;3564;53.326;10.356;2023-04-25T02:44:29;16.10;;;4.10;;
7045;SDS011;3564;53.326;10.356;2023-04-25T02:46:54;14.93;;;4.07;;
7045;SDS011;3564;53.326;10.356;2023-04-25T02:49:20;14.80;;;4.93;;
7045;SDS011;3564;53.326;10.356;2023-04-25T02:51:45;17.67;;;4.70;;
7045;SDS011;3564;53.326;10.356;2023-04-25T02:54:14;18.23;;;4.63;;
7045;SDS011;3564;53.326;10.356;2023-04-25T02:56:39;18.47;;;4.77;;
7045;SDS011;3564;53.326;10.356;2023-04-25T02:59:05;13.67;;;4.33;;
7045;SDS011;3564;53.326;10.356;2023-04-25T03:01:30;12.93;;;4.27;;
7045;SDS011;3564;53.326;10.356;2023-04-25T03:03:56;19.10;;;4.70;;
7045;SDS011;3564;53.326;10.356;2023-04-25T03:06:21;22.33;;;4.80;;
7045;SDS011;3564;53.326;10.356;2023-04-25T03:08:47;14.10;;;3.80;;
7045;SDS011;3564;53.326;10.356;2023-04-25T03:11:21;16.30;;;4.23;;
7045;SDS011;3564;53.326;10.356;2023-04-25T03:13:51;10.83;;;3.83;;
7045;SDS011;3564;53.326;10.356;2023-04-25T03:16:17;17.40;;;4.40;;
7045;SDS011;3564;53.326;10.356;2023-04-25T03:18:43;13.37;;;4.40;;
7045;SDS011;3564;53.326;10.356;2023-04-25T03:21:08;13.30;;;4.07;;
7045;SDS011;3564;53.326;10.356;2023-04-25T03:23:34;19.57;;;4.10;;
7045;SDS011;3564;53.326;10.356;2023-04-25T03:25:59;16.07;;;4.43;;
7045;SDS011;3564;53.326;10.356;2023-04-25T03:28:25;12.40;;;4.03;;
7045;SDS011;3564;53.326;10.356;2023-04-25T03:30:51;13.17;;;4.33;;
7045;SDS011;3564;53.326;10.356;2023-04-25T03:33:16;12.27;;;4.17;;
7045;SDS011;3564;53.326;10.356;2023-04-25T03:35:45;18.60;;;4.87;;
7045;SDS011;3564;53.326;10.356;2023-04-25T03:38:10;19.03;;;4.37;;
7045;SDS011;3564;53.326;10.356;2023-04-25T03:40:39;14.53;;;4.17;;
7045;SDS011;3564;53.326;10.356;2023-04-25T03:43:04;17.00;;;4.17;;
7045;SDS011;3564;53.326;10.356;2023-04-25T03:45:30;15.97;;;4.67;;
7045;SDS011;3564;53.326;10.356;2023-04-25T03:47:55;15.20;;;4.30;;
7045;SDS011;3564;53.326;10.356;2023-04-25T03:50:21;12.10;;;3.77;;
7045;SDS011;3564;53.326;10.356;2023-04-25T03:52:49;14.97;;;4.13;;
7045;SDS011;3564;53.326;10.356;2023-04-25T03:55:15;12.17;;;3.73;;
7045;SDS011;3564;53.326;10.356;2023-04-25T03:57:41;12.87;;;3.50;;
7045;SDS011;3564;53.326;10.356;2023-04-25T04:00:06;17.30;;;3.53;;
7045;SDS011;3564;53.326;10.356;2023-04-25T04:02:33;13.33;;;4.30;;
7045;SDS011;3564;53.326;10.356;2023-04-25T04:04:59;19.27;;;3.97;;
7045;SDS011;3564;53.326;10.356;2023-04-25T04:07:28;14.23;;;4.03;;
7045;SDS011;3564;53.326;10.356;2023-04-25T04:09:54;16.37;;;4.23;;
7045;SDS011;3564;53.326;10.356;2023-04-25T04:12:20;12.07;;;4.23;;
7045;SDS011;3564;53.326;10.356;2023-04-25T04:14:45;15.90;;;4.53;;
7045;SDS011;3564;53.326;10.356;2023-04-25T04:17:11;11.30;;;3.70;;
7045;SDS011;3564;53.326;10.356;2023-04-25T04:19:36;14.63;;;3.67;;
7045;SDS011;3564;53.326;10.356;2023-04-25T04:22:02;11.80;;;4.10;;
7045;SDS011;3564;53.326;10.356;2023-04-25T04:24:30;15.63;;;4.13;;
7045;SDS011;3564;53.326;10.356;2023-04-25T04:26:56;16.43;;;4.00;;
7045;SDS011;3564;53.326;10.356;2023-04-25T04:29:21;20.60;;;5.23;;
7045;SDS011;3564;53.326;10.356;2023-04-25T04:31:50;17.60;;;4.00;;
7045;SDS011;3564;53.326;10.356;2023-04-25T04:34:17;15.00;;;3.83;;
7045;SDS011;3564;53.326;10.356;2023-04-25T04:36:43;16.67;;;4.37;;
7045;SDS011;3564;53.326;10.356;2023-04-25T04:39:12;16.50;;;3.87;;
7045;SDS011;3564;53.326;10.356;2023-04-25T04:41:38;17.80;;;4.40;;
7045;SDS011;3564;53.326;10.356;2023-04-25T04:44:05;12.47;;;3.63;;
7045;SDS011;3564;53.326;10.356;2023-04-25T04:46:31;12.90;;;5.03;;
7045;SDS011;3564;53.326;10.356;2023-04-25T04:49:02;13.63;;;3.90;;
7045;SDS011;3564;53.326;10.356;2023-04-25T04:51:30;16.17;;;4.80;;
7045;SDS011;3564;53.326;10.356;2023-04-25T04:53:59;17.33;;;4.50;;
7045;SDS011;3564;53.326;10.356;2023-04-25T04:56:27;12.30;;;3.60;;
7045;SDS011;3564;53.326;10.356;2023-04-25T04:58:55;13.87;;;3.77;;
7045;SDS011;3564;53.326;10.356;2023-04-25T05:01:21;13.10;;;3.97;;
7045;SDS011;3564;53.326;10.356;2023-04-25T05:03:50;15.43;;;3.80;;
7045;SDS011;3564;53.326;10.356;2023-04-25T05:06:17;12.70;;;3.73;;
7045;SDS011;3564;53.326;10.356;2023-04-25T05:08:43;13.20;;;3.83;;
7045;SDS011;3564;53.326;10.356;2023-04-25T05:11:12;12.73;;;3.80;;
7045;SDS011;3564;53.326;10.356;2023-04-25T05:13:38;19.00;;;4.00;;
7045;SDS011;3564;53.326;10.356;2023-04-25T05:16:03;13.93;;;4.23;;
7045;SDS011;3564;53.326;10.356;2023-04-25T05:18:29;18.87;;;4.83;;
7045;SDS011;3564;53.326;10.356;2023-04-25T05:20:55;16.33;;;4.03;;
7045;SDS011;3564;53.326;10.356;2023-04-25T05:23:20;11.50;;;4.57;;
7045;SDS011;3564;53.326;10.356;2023-04-25T05:25:49;12.90;;;4.13;;
7045;SDS011;3564;53.326;10.356;2023-04-25T05:28:14;13.53;;;3.57;;
7045;SDS011;3564;53.326;10.356;2023-04-25T05:30:40;11.87;;;3.23;;
7045;SDS011;3564;53.326;10.356;2023-04-25T05:33:09;14.43;;;3.83;;
7045;SDS011;3564;53.326;10.356;2023-04-25T05:35:34;12.10;;;3.53;;
7045;SDS011;3564;53.326;10.356;2023-04-25T05:38:03;12.13;;;3.20;;
7045;SDS011;3564;53.326;10.356;2023-04-25T05:40:28;7.47;;;3.07;;
7045;SDS011;3564;53.326;10.356;2023-04-25T05:42:54;13.83;;;3.67;;
7045;SDS011;3564;53.326;10.356;2023-04-25T05:45:20;12.80;;;3.73;;
7045;SDS011;3564;53.326;10.356;2023-04-25T05:47:45;15.67;;;4.27;;
7045;SDS011;3564;53.326;10.356;2023-04-25T05:50:17;14.73;;;3.43;;
7045;SDS011;3564;53.326;10.356;2023-04-25T05:52:42;11.93;;;3.57;;
7045;SDS011;3564;53.326;10.356;2023-04-25T05:55:08;17.93;;;4.03;;
7045;SDS011;3564;53.326;10.356;2023-04-25T05:57:34;15.17;;;3.27;;
7045;SDS011;3564;53.326;10.356;2023-04-25T06:00:00;13.33;;;3.80;;
7045;SDS011;3564;53.326;10.356;2023-04-25T06:02:35;9.80;;;3.37;;
7045;SDS011;3564;53.326;10.356;2023-04-25T06:05:00;10.40;;;3.43;;
7045;SDS011;3564;53.326;10.356;2023-04-25T06:07:28;15.87;;;3.10;;
7045;SDS011;3564;53.326;10.356;2023-04-25T06:09:54;16.17;;;4.10;;
7045;SDS011;3564;53.326;10.356;2023-04-25T06:12:20;12.50;;;3.30;;
7045;SDS011;3564;53.326;10.356;2023-04-25T06:14:46;7.13;;;3.00;;
7045;SDS011;3564;53.326;10.356;2023-04-25T06:17:11;11.33;;;3.03;;
7045;SDS011;3564;53.326;10.356;2023-04-25T06:19:37;11.90;;;3.33;;
7045;SDS011;3564;53.326;10.356;2023-04-25T06:22:02;12.30;;;3.57;;
7045;SDS011;3564;53.326;10.356;2023-04-25T06:24:28;12.53;;;3.33;;
7045;SDS011;3564;53.326;10.356;2023-04-25T06:26:54;11.30;;;3.60;;
7045;SDS011;3564;53.326;10.356;2023-04-25T06:29:22;11.63;;;3.30;;
7045;SDS011;3564;53.326;10.356;2023-04-25T06:31:48;10.90;;;3.43;;
7045;SDS011;3564;53.326;10.356;2023-04-25T06:34:13;11.53;;;2.97;;
7045;SDS011;3564;53.326;10.356;2023-04-25T06:36:40;11.67;;;3.63;;
7045;SDS011;3564;53.326;10.356;2023-04-25T06:39:06;10.83;;;2.97;;
7045;SDS011;3564;53.326;10.356;2023-04-25T06:41:32;12.63;;;3.13;;
7045;SDS011;3564;53.326;10.356;2023-04-25T06:43:57;10.03;;;3.23;;
7045;SDS011;3564;53.326;10.356;2023-04-25T06:46:23;8.30;;;2.90;;
7045;SDS011;3564;53.326;10.356;2023-04-25T06:48:48;10.67;;;3.20;;
7045;SDS011;3564;53.326;10.356;2023-04-25T06:51:15;10.93;;;3.03;;
7045;SDS011;3564;53.326;10.356;2023-04-25T06:53:40;8.83;;;2.90;;
7045;SDS011;3564;53.326;10.356;2023-04-25T06:56:06;11.50;;;3.80;;
7045;SDS011;3564;53.326;10.356;2023-04-25T06:58:34;13.20;;;3.70;;
7045;SDS011;3564;53.326;10.356;2023-04-25T07:01:00;10.73;;;3.30;;
7045;SDS011;3564;53.326;10.356;2023-04-25T07:03:26;10.13;;;2.93;;
7045;SDS011;3564;53.326;10.356;2023-04-25T07:05:52;8.03;;;2.70;;
7045;SDS011;3564;53.326;10.356;2023-04-25T07:08:26;13.70;;;3.40;;
7045;SDS011;3564;53.326;10.356;2023-04-25T07:10:57;12.03;;;3.27;;
7045;SDS011;3564;53.326;10.356;2023-04-25T07:13:26;11.70;;;2.97;;
7045;SDS011;3564;53.326;10.356;2023-04-25T07:15:51;8.20;;;2.80;;
7045;SDS011;3564;53.326;10.356;2023-04-25T07:18:17;11.30;;;3.00;;
7045;SDS011;3564;53.326;10.356;2023-04-25T07:20:42;10.97;;;3.10;;
7045;SDS011;3564;53.326;10.356;2023-04-25T07:23:08;7.23;;;2.50;;
7045;SDS011;3564;53.326;10.356;2023-04-25T07:25:33;11.47;;;2.80;;
7045;SDS011;3564;53.326;10.356;2023-04-25T07:28:00;11.07;;;2.83;;
7045;SDS011;3564;53.326;10.356;2023-04-25T07:30:25;11.70;;;3.33;;
7045;SDS011;3564;53.326;10.356;2023-04-25T07:32:51;13.53;;;3.63;;
7045;SDS011;3564;53.326;10.356;2023-04-25T07:35:22;12.63;;;3.03;;
7045;SDS011;3564;53.326;10.356;2023-04-25T07:37:48;10.90;;;3.73;;
7045;SDS011;3564;53.326;10.356;2023-04-25T07:40:14;13.53;;;3.20;;
7045;SDS011;3564;53.326;10.356;2023-04-25T07:42:42;9.13;;;2.90;;
7045;SDS011;3564;53.326;10.356;2023-04-25T07:45:08;12.27;;;3.13;;
7045;SDS011;3564;53.326;10.356;2023-04-25T07:47:34;6.90;;;3.20;;
7045;SDS011;3564;53.326;10.356;2023-04-25T07:50:00;11.20;;;3.23;;
7045;SDS011;3564;53.326;10.356;2023-04-25T07:52:25;11.63;;;3.23;;
7045;SDS011;3564;53.326;10.356;2023-04-25T07:54:51;9.53;;;3.13;;
7045;SDS011;3564;53.326;10.356;2023-04-25T07:57:17;4.80;;;2.77;;
7045;SDS011;3564;53.326;10.356;2023-04-25T07:59:46;6.07;;;3.20;;
7045;SDS011;3564;53.326;10.356;2023-04-25T08:02:14;11.00;;;2.63;;
7045;SDS011;3564;53.326;10.356;2023-04-25T08:04:40;4.17;;;2.70;;
7045;SDS011;3564;53.326;10.356;2023-04-25T08:07:05;8.60;;;2.63;;
7045;SDS011;3564;53.326;10.356;2023-04-25T08:09:31;6.97;;;2.30;;
7045;SDS011;3564;53.326;10.356;2023-04-25T08:12:00;5.87;;;2.57;;
7045;SDS011;3564;53.326;10.356;2023-04-25T08:14:26;7.77;;;2.20;;
7045;SDS011;3564;53.326;10.356;2023-04-25T08:16:53;10.00;;;3.03;;
7045;SDS011;3564;53.326;10.356;2023-04-25T08:19:19;7.53;;;2.73;;
7045;SDS011;3564;53.326;10.356;2023-04-25T08:21:44;8.20;;;2.90;;
7045;SDS011;3564;53.326;10.356;2023-04-25T08:24:10;7.43;;;2.50;;
7045;SDS011;3564;53.326;10.356;2023-04-25T08:26:36;5.57;;;2.20;;
7045;SDS011;3564;53.326;10.356;2023-04-25T08:29:02;9.30;;;2.70;;
7045;SDS011;3564;53.326;10.356;2023-04-25T08:31:27;9.60;;;2.80;;
7045;SDS011;3564;53.326;10.356;2023-04-25T08:33:59;9.10;;;2.80;;
7045;SDS011;3564;53.326;10.356;2023-04-25T08:36:25;9.53;;;2.27;;
7045;SDS011;3564;53.326;10.356;2023-04-25T08:38:52;7.37;;;3.00;;
7045;SDS011;3564;53.326;10.356;2023-04-25T08:41:18;6.17;;;2.47;;
7045;SDS011;3564;53.326;10.356;2023-04-25T08:43:49;7.57;;;2.27;;
7045;SDS011;3564;53.326;10.356;2023-04-25T08:46:19;6.43;;;2.20;;
7045;SDS011;3564;53.326;10.356;2023-04-25T08:48:45;6.23;;;2.37;;
7045;SDS011;3564;53.326;10.356;2023-04-25T08:51:15;8.63;;;2.80;;
7045;SDS011;3564;53.326;10.356;2023-04-25T08:53:48;6.90;;;2.10;;
7045;SDS011;3564;53.326;10.356;2023-04-25T08:56:18;9.50;;;2.30;;
7045;SDS011;3564;53.326;10.356;2023-04-25T08:58:50;7.23;;;2.30;;
7045;SDS011;3564;53.326;10.356;2023-04-25T09:01:18;7.50;;;2.30;;
7045;SDS011;3564;53.326;10.356;2023-04-25T09:03:44;10.70;;;2.73;;
7045;SDS011;3564;53.326;10.356;2023-04-25T09:06:15;4.87;;;1.97;;
7045;SDS011;3564;53.326;10.356;2023-04-25T09:08:42;8.57;;;2.33;;
7045;SDS011;3564;53.326;10.356;2023-04-25T09:11:08;5.73;;;2.10;;
7045;SDS011;3564;53.326;10.356;2023-04-25T09:13:34;8.73;;;2.00;;
7045;SDS011;3564;53.326;10.356;2023-04-25T09:15:59;8.50;;;2.40;;
7045;SDS011;3564;53.326;10.356;2023-04-25T09:18:32;6.23;;;2.20;;
7045;SDS011;3564;53.326;10.356;2023-04-25T09:21:08;9.63;;;2.40;;
7045;SDS011;3564;53.326;10.356;2023-04-25T09:23:55;8.10;;;2.20;;
7045;SDS011;3564;53.326;10.356;2023-04-25T09:26:20;7.50;;;2.20;;
7045;SDS011;3564;53.326;10.356;2023-04-25T09:28:46;4.73;;;1.90;;
7045;SDS011;3564;53.326;10.356;2023-04-25T09:31:21;4.50;;;1.90;;
7045;SDS011;3564;53.326;10.356;2023-04-25T09:34:01;5.10;;;1.80;;
7045;SDS011;3564;53.326;10.356;2023-04-25T09:36:30;6.63;;;1.87;;
7045;SDS011;3564;53.326;10.356;2023-04-25T09:38:55;6.13;;;2.37;;
7045;SDS011;3564;53.326;10.356;2023-04-25T09:41:27;4.87;;;2.00;;
7045;SDS011;3564;53.326;10.356;2023-04-25T09:43:53;2.27;;;1.50;;
7045;SDS011;3564;53.326;10.356;2023-04-25T09:46:32;3.33;;;1.20;;
7045;SDS011;3564;53.326;10.356;2023-04-25T09:49:06;3.03;;;1.50;;
7045;SDS011;3564;53.326;10.356;2023-04-25T09:51:33;5.10;;;1.43;;
7045;SDS011;3564;53.326;10.356;2023-04-25T09:53:58;4.57;;;1.77;;
7045;SDS011;3564;53.326;10.356;2023-04-25T09:56:24;5.63;;;1.40;;
7045;SDS011;3564;53.326;10.356;2023-04-25T09:58:54;3.80;;;1.83;;
7045;SDS011;3564;53.326;10.356;2023-04-25T10:01:20;3.30;;;1.83;;
7045;SDS011;3564;53.326;10.356;2023-04-25T10:03:50;4.87;;;1.50;;
7045;SDS011;3564;53.326;10.356;2023-04-25T10:06:24;5.00;;;1.83;;
7045;SDS011;3564;53.326;10.356;2023-04-25T10:08:52;2.37;;;1.30;;
7045;SDS011;3564;53.326;10.356;2023-04-25T10:11:20;1.67;;;1.23;;
7045;SDS011;3564;53.326;10.356;2023-04-25T10:13:55;2.47;;;1.50;;
7045;SDS011;3564;53.326;10.356;2023-04-25T10:16:21;9.00;;;1.83;;
7045;SDS011;3564;53.326;10.356;2023-04-25T10:18:47;5.57;;;1.80;;
7045;SDS011;3564;53.326;10.356;2023-04-25T10:21:19;6.43;;;2.20;;
7045;SDS011;3564;53.326;10.356;2023-04-25T10:23:46;6.93;;;2.17;;
7045;SDS011;3564;53.326;10.356;2023-04-25T10:26:12;5.60;;;1.70;;
7045;SDS011;3564;53.326;10.356;2023-04-25T10:28:54;5.83;;;2.23;;
7045;SDS011;3564;53.326;10.356;2023-04-25T10:31:29;6.37;;;1.90;;
7045;SDS011;3564;53.326;10.356;2023-04-25T10:33:59;6.60;;;2.00;;
7045;SDS011;3564;53.326;10.356;2023-04-25T10:36:30;7.40;;;2.20;;
7045;SDS011;3564;53.326;10.356;2023-04-25T10:38:58;5.73;;;1.77;;
7045;SDS011;3564;53.326;10.356;2023-04-25T10:41:45;7.53;;;2.17;;
7045;SDS011;3564;53.326;10.356;2023-04-25T10:44:26;6.37;;;1.67;;
7045;SDS011;3564;53.326;10.356;2023-04-25T10:46:54;5.10;;;1.90;;
7045;SDS011;3564;53.326;10.356;2023-04-25T10:49:28;4.73;;;1.80;;
7045;SDS011;3564;53.326;10.356;2023-04-25T10:54:50;3.63;;;1.80;;
7045;SDS011;3564;53.326;10.356;2023-04-25T10:57:27;3.73;;;1.60;;
7045;SDS011;3564;53.326;10.356;2023-04-25T11:02:50;2.97;;;1.60;;
7045;SDS011;3564;53.326;10.356;2023-04-25T11:05:19;8.13;;;1.93;;
7045;SDS011;3564;53.326;10.356;2023-04-25T11:07:52;5.27;;;2.13;;
7045;SDS011;3564;53.326;10.356;2023-04-25T11:10:21;5.03;;;1.90;;
7045;SDS011;3564;53.326;10.356;2023-04-25T11:12:57;4.03;;;1.57;;
7045;SDS011;3564;53.326;10.356;2023-04-25T11:15:23;6.03;;;1.80;;
7045;SDS011;3564;53.326;10.356;2023-04-25T11:17:53;6.17;;;1.93;;
7045;SDS011;3564;53.326;10.356;2023-04-25T11:20:20;6.17;;;2.43;;
7045;SDS011;3564;53.326;10.356;2023-04-25T11:22:46;3.87;;;1.60;;
7045;SDS011;3564;53.326;10.356;2023-04-25T11:25:13;5.07;;;1.93;;
7045;SDS011;3564;53.326;10.356;2023-04-25T11:27:56;5.87;;;1.50;;
7045;SDS011;3564;53.326;10.356;2023-04-25T11:30:23;4.30;;;1.60;;
7045;SDS011;3564;53.326;10.356;2023-04-25T11:32:55;4.40;;;1.63;;
7045;SDS011;3564;53.326;10.356;2023-04-25T11:35:20;4.90;;;1.77;;
7045;SDS011;3564;53.326;10.356;2023-04-25T11:37:53;3.77;;;1.67;;
7045;SDS011;3564;53.326;10.356;2023-04-25T11:40:19;4.40;;;1.47;;
7045;SDS011;3564;53.326;10.356;2023-04-25T11:42:48;3.23;;;1.50;;
7045;SDS011;3564;53.326;10.356;2023-04-25T11:45:14;5.00;;;1.40;;
7045;SDS011;3564;53.326;10.356;2023-04-25T11:47:39;4.77;;;1.60;;
7045;SDS011;3564;53.326;10.356;2023-04-25T11:50:06;5.00;;;1.57;;
7045;SDS011;3564;53.326;10.356;2023-04-25T11:52:42;5.10;;;1.63;;
7045;SDS011;3564;53.326;10.356;2023-04-25T11:55:19;3.67;;;1.80;;
7045;SDS011;3564;53.326;10.356;2023-04-25T11:57:46;3.77;;;1.67;;
7045;SDS011;3564;53.326;10.356;2023-04-25T12:00:17;4.93;;;1.67;;
7045;SDS011;3564;53.326;10.356;2023-04-25T12:02:47;3.80;;;1.70;;
7045;SDS011;3564;53.326;10.356;2023-04-25T12:05:16;5.70;;;1.83;;
7045;SDS011;3564;53.326;10.356;2023-04-25T12:07:42;6.77;;;1.80;;
7045;SDS011;3564;53.326;10.356;2023-04-25T12:10:08;4.27;;;1.67;;
7045;SDS011;3564;53.326;10.356;2023-04-25T12:12:41;5.40;;;1.97;;
7045;SDS011;3564;53.326;10.356;2023-04-25T12:15:08;5.30;;;2.07;;
7045;SDS011;3564;53.326;10.356;2023-04-25T12:17:41;3.97;;;2.03;;
7045;SDS011;3564;53.326;10.356;2023-04-25T12:20:10;4.27;;;1.50;;
7045;SDS011;3564;53.326;10.356;2023-04-25T12:22:42;4.80;;;1.30;;
7045;SDS011;3564;53.326;10.356;2023-04-25T12:25:10;1.97;;;1.40;;
7045;SDS011;3564;53.326;10.356;2023-04-25T12:27:37;2.90;;;1.40;;
7045;SDS011;3564;53.326;10.356;2023-04-25T12:30:05;6.17;;;1.90;;
7045;SDS011;3564;53.326;10.356;2023-04-25T12:32:32;4.20;;;1.67;;
7045;SDS011;3564;53.326;10.356;2023-04-25T12:35:04;6.07;;;1.40;;
7045;SDS011;3564;53.326;10.356;2023-04-25T12:37:31;1.30;;;1.13;;
7045;SDS011;3564;53.326;10.356;2023-04-25T12:39:57;2.60;;;1.33;;
7045;SDS011;3564;53.326;10.356;2023-04-25T12:42:25;4.27;;;1.43;;
7045;SDS011;3564;53.326;10.356;2023-04-25T12:44:50;2.73;;;1.40;;
7045;SDS011;3564;53.326;10.356;2023-04-25T12:47:17;3.17;;;1.40;;
7045;SDS011;3564;53.326;10.356;2023-04-25T12:49:42;5.20;;;1.57;;
7045;SDS011;3564;53.326;10.356;2023-04-25T12:52:08;3.63;;;1.80;;
7045;SDS011;3564;53.326;10.356;2023-04-25T12:54:33;8.07;;;1.90;;
7045;SDS011;3564;53.326;10.356;2023-04-25T12:56:59;5.17;;;2.10;;
7045;SDS011;3564;53.326;10.356;2023-04-25T12:59:26;5.17;;;1.80;;
7045;SDS011;3564;53.326;10.356;2023-04-25T13:01:57;5.67;;;1.53;;
7045;SDS011;3564;53.326;10.356;2023-04-25T13:04:23;2.53;;;1.33;;
7045;SDS011;3564;53.326;10.356;2023-04-25T13:06:49;4.70;;;1.70;;
7045;SDS011;3564;53.326;10.356;2023-04-25T13:09:17;6.07;;;1.90;;
7045;SDS011;3564;53.326;10.356;2023-04-25T13:11:43;5.10;;;1.60;;
7045;SDS011;3564;53.326;10.356;2023-04-25T13:14:12;4.53;;;1.83;;
7045;SDS011;3564;53.326;10.356;2023-04-25T13:16:40;6.17;;;2.10;;
7045;SDS011;3564;53.326;10.356;2023-04-25T13:19:09;5.30;;;2.20;;
7045;SDS011;3564;53.326;10.356;2023-04-25T13:21:36;4.73;;;1.53;;
7045;SDS011;3564;53.326;10.356;2023-04-25T13:24:01;4.20;;;1.53;;
7045;SDS011;3564;53.326;10.356;2023-04-25T13:26:30;4.50;;;1.57;;
7045;SDS011;3564;53.326;10.356;2023-04-25T13:28:56;2.70;;;1.40;;
7045;SDS011;3564;53.326;10.356;2023-04-25T13:31:22;3.73;;;1.60;;
7045;SDS011;3564;53.326;10.356;2023-04-25T13:33:47;3.97;;;1.70;;
7045;SDS011;3564;53.326;10.356;2023-04-25T13:36:13;4.80;;;1.90;;
7045;SDS011;3564;53.326;10.356;2023-04-25T13:38:38;8.70;;;2.43;;
7045;SDS011;3564;53.326;10.356;2023-04-25T13:41:06;2.73;;;1.43;;
7045;SDS011;3564;53.326;10.356;2023-04-25T13:43:32;4.77;;;1.57;;
7045;SDS011;3564;53.326;10.356;2023-04-25T13:46:06;5.40;;;1.70;;
7045;SDS011;3564;53.326;10.356;2023-04-25T13:48:32;8.70;;;2.03;;
7045;SDS011;3564;53.326;10.356;2023-04-25T13:50:57;5.77;;;2.00;;
7045;SDS011;3564;53.326;10.356;2023-04-25T13:53:23;5.50;;;2.00;;
7045;SDS011;3564;53.326;10.356;2023-04-25T13:55:55;4.30;;;1.83;;
7045;SDS011;3564;53.326;10.356;2023-04-25T13:58:20;2.87;;;1.57;;
7045;SDS011;3564;53.326;10.356;2023-04-25T14:00:46;4.77;;;1.93;;
7045;SDS011;3564;53.326;10.356;2023-04-25T14:03:12;5.30;;;1.73;;
7045;SDS011;3564;53.326;10.356;2023-04-25T14:05:40;3.30;;;1.67;;
7045;SDS011;3564;53.326;10.356;2023-04-25T14:08:07;4.63;;;1.97;;
7045;SDS011;3564;53.326;10.356;2023-04-25T14:10:33;2.27;;;1.33;;
7045;SDS011;3564;53.326;10.356;2023-04-25T14:13:00;6.40;;;1.97;;
7045;SDS011;3564;53.326;10.356;2023-04-25T14:15:26;6.40;;;1.57;;
7045;SDS011;3564;53.326;10.356;2023-04-25T14:17:54;7.03;;;1.70;;
7045;SDS011;3564;53.326;10.356;2023-04-25T14:20:23;5.10;;;2.17;;
7045;SDS011;3564;53.326;10.356;2023-04-25T14:22:51;6.40;;;1.87;;
7045;SDS011;3564;53.326;10.356;2023-04-25T14:25:19;6.67;;;1.83;;
7045;SDS011;3564;53.326;10.356;2023-04-25T14:27:45;6.50;;;2.07;;
7045;SDS011;3564;53.326;10.356;2023-04-25T14:30:14;7.37;;;2.03;;
7045;SDS011;3564;53.326;10.356;2023-04-25T14:32:41;5.47;;;1.67;;
7045;SDS011;3564;53.326;10.356;2023-04-25T14:35:06;5.17;;;1.73;;
7045;SDS011;3564;53.326;10.356;2023-04-25T14:37:32;5.80;;;2.20;;
7045;SDS011;3564;53.326;10.356;2023-04-25T14:39:58;6.77;;;2.27;;
7045;SDS011;3564;53.326;10.356;2023-04-25T14:42:23;6.67;;;2.23;;
7045;SDS011;3564;53.326;10.356;2023-04-25T14:44:52;5.73;;;2.03;;
7045;SDS011;3564;53.326;10.356;2023-04-25T14:47:24;4.27;;;1.87;;
7045;SDS011;3564;53.326;10.356;2023-04-25T14:49:49;5.70;;;1.67;;
7045;SDS011;3564;53.326;10.356;2023-04-25T14:52:19;7.43;;;2.20;;
7045;SDS011;3564;53.326;10.356;2023-04-25T14:54:45;7.20;;;1.70;;
7045;SDS011;3564;53.326;10.356;2023-04-25T14:57:11;5.50;;;1.87;;
7045;SDS011;3564;53.326;10.356;2023-04-25T14:59:38;5.40;;;1.80;;
7045;SDS011;3564;53.326;10.356;2023-04-25T15:02:03;7.47;;;1.63;;